sensor_id;sensor_type;location;lat;lon;timestamp;temperature;humidity
4107;DHT22;21906;50.812;7.132;2022-10-16T00:01:48;15.90;82.30
4107;DHT22;21906;50.812;7.132;2022-10-16T00:04:14;15.90;82.30
4107;DHT22;21906;50.812;7.132;2022-10-16T00:06:39;15.90;82.20
4107;DHT22;21906;50.812;7.132;2022-10-16T00:09:06;15.90;82.30
4107;DHT22;21906;50.812;7.132;2022-10-16T00:11:34;15.90;82.30
4107;DHT22;21906;50.812;7.132;2022-10-16T00:14:03;15.90;82.30
4107;DHT22;21906;50.812;7.132;2022-10-16T00:16:30;15.90;82.30
4107;DHT22;21906;50.812;7.132;2022-10-16T00:18:56;15.90;82.20
4107;DHT22;21906;50.812;7.132;2022-10-16T00:21:25;15.90;82.10
4107;DHT22;21906;50.812;7.132;2022-10-16T00:23:57;15.80;82.10
4107;DHT22;21906;50.812;7.132;2022-10-16T00:26:25;15.90;82.00
4107;DHT22;21906;50.812;7.132;2022-10-16T00:28:51;15.80;82.00
4107;DHT22;21906;50.812;7.132;2022-10-16T00:31:18;15.80;81.90
4107;DHT22;21906;50.812;7.132;2022-10-16T00:33:44;15.80;81.80
4107;DHT22;21906;50.812;7.132;2022-10-16T00:36:13;15.80;81.80
4107;DHT22;21906;50.812;7.132;2022-10-16T00:38:39;15.80;81.90
4107;DHT22;21906;50.812;7.132;2022-10-16T00:41:06;15.80;81.90
4107;DHT22;21906;50.812;7.132;2022-10-16T00:43:49;15.80;81.80
4107;DHT22;21906;50.812;7.132;2022-10-16T00:49:10;15.70;81.80
4107;DHT22;21906;50.812;7.132;2022-10-16T00:52:06;15.70;81.80
4107;DHT22;21906;50.812;7.132;2022-10-16T00:54:32;15.70;81.80
4107;DHT22;21906;50.812;7.132;2022-10-16T00:57:02;15.60;81.90
4107;DHT22;21906;50.812;7.132;2022-10-16T00:59:33;15.60;82.00
4107;DHT22;21906;50.812;7.132;2022-10-16T01:02:00;15.60;82.10
4107;DHT22;21906;50.812;7.132;2022-10-16T01:04:37;15.60;82.20
4107;DHT22;21906;50.812;7.132;2022-10-16T01:10:14;15.60;82.20
4107;DHT22;21906;50.812;7.132;2022-10-16T01:13:02;15.60;82.20
4107;DHT22;21906;50.812;7.132;2022-10-16T01:15:38;15.60;82.10
4107;DHT22;21906;50.812;7.132;2022-10-16T01:23:31;15.50;82.20
4107;DHT22;21906;50.812;7.132;2022-10-16T01:31:15;15.50;82.10
4107;DHT22;21906;50.812;7.132;2022-10-16T01:33:44;15.50;82.00
4107;DHT22;21906;50.812;7.132;2022-10-16T01:36:21;15.50;82.00
4107;DHT22;21906;50.812;7.132;2022-10-16T01:38:50;15.50;81.90
4107;DHT22;21906;50.812;7.132;2022-10-16T01:46:31;15.50;81.90
4107;DHT22;21906;50.812;7.132;2022-10-16T01:48:57;15.40;81.80
4107;DHT22;21906;50.812;7.132;2022-10-16T01:51:25;15.40;81.70
4107;DHT22;21906;50.812;7.132;2022-10-16T01:53:54;15.30;81.60
4107;DHT22;21906;50.812;7.132;2022-10-16T01:56:21;15.30;81.80
4107;DHT22;21906;50.812;7.132;2022-10-16T01:59:15;15.30;81.70
4107;DHT22;21906;50.812;7.132;2022-10-16T02:01:45;15.30;81.50
4107;DHT22;21906;50.812;7.132;2022-10-16T02:04:21;15.20;81.30
4107;DHT22;21906;50.812;7.132;2022-10-16T02:06:48;15.20;81.40
4107;DHT22;21906;50.812;7.132;2022-10-16T02:09:13;15.20;81.40
4107;DHT22;21906;50.812;7.132;2022-10-16T02:11:42;15.10;81.70
4107;DHT22;21906;50.812;7.132;2022-10-16T02:14:08;15.20;81.90
4107;DHT22;21906;50.812;7.132;2022-10-16T02:16:52;15.20;82.00
4107;DHT22;21906;50.812;7.132;2022-10-16T02:19:19;15.20;82.30
4107;DHT22;21906;50.812;7.132;2022-10-16T02:21:57;15.20;82.30
4107;DHT22;21906;50.812;7.132;2022-10-16T02:27:11;15.20;82.60
4107;DHT22;21906;50.812;7.132;2022-10-16T02:29:45;15.30;82.60
4107;DHT22;21906;50.812;7.132;2022-10-16T02:32:19;15.30;82.50
4107;DHT22;21906;50.812;7.132;2022-10-16T02:34:47;15.30;82.60
4107;DHT22;21906;50.812;7.132;2022-10-16T02:37:13;15.30;82.60
4107;DHT22;21906;50.812;7.132;2022-10-16T02:39:40;15.40;82.60
4107;DHT22;21906;50.812;7.132;2022-10-16T02:42:14;15.30;82.60
4107;DHT22;21906;50.812;7.132;2022-10-16T02:44:39;15.40;82.60
4107;DHT22;21906;50.812;7.132;2022-10-16T02:47:05;15.40;82.60
4107;DHT22;21906;50.812;7.132;2022-10-16T02:49:31;15.40;82.60
4107;DHT22;21906;50.812;7.132;2022-10-16T02:51:56;15.40;82.60
4107;DHT22;21906;50.812;7.132;2022-10-16T02:54:22;15.40;82.50
4107;DHT22;21906;50.812;7.132;2022-10-16T02:56:48;15.40;82.40
4107;DHT22;21906;50.812;7.132;2022-10-16T02:59:13;15.40;82.40
4107;DHT22;21906;50.812;7.132;2022-10-16T03:01:39;15.40;82.30
4107;DHT22;21906;50.812;7.132;2022-10-16T03:04:05;15.40;82.30
4107;DHT22;21906;50.812;7.132;2022-10-16T03:06:30;15.40;82.30
4107;DHT22;21906;50.812;7.132;2022-10-16T03:08:56;15.40;82.20
4107;DHT22;21906;50.812;7.132;2022-10-16T03:11:21;15.50;82.20
4107;DHT22;21906;50.812;7.132;2022-10-16T03:13:47;15.50;82.20
4107;DHT22;21906;50.812;7.132;2022-10-16T03:16:13;15.50;82.10
4107;DHT22;21906;50.812;7.132;2022-10-16T03:18:39;15.50;82.20
4107;DHT22;21906;50.812;7.132;2022-10-16T03:21:04;15.50;82.10
4107;DHT22;21906;50.812;7.132;2022-10-16T03:23:30;15.50;82.00
4107;DHT22;21906;50.812;7.132;2022-10-16T03:25:55;15.60;81.90
4107;DHT22;21906;50.812;7.132;2022-10-16T03:28:21;15.60;81.80
4107;DHT22;21906;50.812;7.132;2022-10-16T03:30:47;15.60;81.70
4107;DHT22;21906;50.812;7.132;2022-10-16T03:33:12;15.60;81.50
4107;DHT22;21906;50.812;7.132;2022-10-16T03:35:38;15.60;81.40
4107;DHT22;21906;50.812;7.132;2022-10-16T03:38:04;15.60;81.30
4107;DHT22;21906;50.812;7.132;2022-10-16T03:40:29;15.60;81.30
4107;DHT22;21906;50.812;7.132;2022-10-16T03:42:57;15.70;81.20
4107;DHT22;21906;50.812;7.132;2022-10-16T03:45:24;15.70;81.20
4107;DHT22;21906;50.812;7.132;2022-10-16T03:47:49;15.70;81.00
4107;DHT22;21906;50.812;7.132;2022-10-16T03:50:15;15.70;81.10
4107;DHT22;21906;50.812;7.132;2022-10-16T03:52:41;15.70;81.00
4107;DHT22;21906;50.812;7.132;2022-10-16T03:55:07;15.70;81.00
4107;DHT22;21906;50.812;7.132;2022-10-16T03:57:33;15.80;80.70
4107;DHT22;21906;50.812;7.132;2022-10-16T03:59:58;15.80;80.80
4107;DHT22;21906;50.812;7.132;2022-10-16T04:02:24;15.80;80.70
4107;DHT22;21906;50.812;7.132;2022-10-16T04:04:50;15.80;80.40
4107;DHT22;21906;50.812;7.132;2022-10-16T04:07:16;15.80;80.40
4107;DHT22;21906;50.812;7.132;2022-10-16T04:09:41;15.80;80.20
4107;DHT22;21906;50.812;7.132;2022-10-16T04:12:07;15.80;80.40
4107;DHT22;21906;50.812;7.132;2022-10-16T04:14:33;15.90;80.40
4107;DHT22;21906;50.812;7.132;2022-10-16T04:16:59;15.90;80.40
4107;DHT22;21906;50.812;7.132;2022-10-16T04:19:25;15.90;80.30
4107;DHT22;21906;50.812;7.132;2022-10-16T04:21:51;15.90;80.40
4107;DHT22;21906;50.812;7.132;2022-10-16T04:24:17;15.90;80.30
4107;DHT22;21906;50.812;7.132;2022-10-16T04:26:42;15.90;80.10
4107;DHT22;21906;50.812;7.132;2022-10-16T04:29:08;15.90;80.10
4107;DHT22;21906;50.812;7.132;2022-10-16T04:31:34;15.90;80.10
4107;DHT22;21906;50.812;7.132;2022-10-16T04:33:59;15.90;80.00
4107;DHT22;21906;50.812;7.132;2022-10-16T04:36:25;15.90;80.10
4107;DHT22;21906;50.812;7.132;2022-10-16T04:38:51;16.00;79.80
4107;DHT22;21906;50.812;7.132;2022-10-16T04:41:16;16.00;79.70
4107;DHT22;21906;50.812;7.132;2022-10-16T04:43:42;15.90;79.70
4107;DHT22;21906;50.812;7.132;2022-10-16T04:46:07;16.00;79.60
4107;DHT22;21906;50.812;7.132;2022-10-16T04:48:33;16.00;79.50
4107;DHT22;21906;50.812;7.132;2022-10-16T04:50:59;16.00;79.60
4107;DHT22;21906;50.812;7.132;2022-10-16T04:53:25;15.90;79.60
4107;DHT22;21906;50.812;7.132;2022-10-16T04:55:50;16.00;79.60
4107;DHT22;21906;50.812;7.132;2022-10-16T04:58:16;16.00;79.60
4107;DHT22;21906;50.812;7.132;2022-10-16T05:00:43;16.00;79.60
4107;DHT22;21906;50.812;7.132;2022-10-16T05:03:09;16.00;79.60
4107;DHT22;21906;50.812;7.132;2022-10-16T05:05:35;16.00;79.60
4107;DHT22;21906;50.812;7.132;2022-10-16T05:08:02;16.00;79.60
4107;DHT22;21906;50.812;7.132;2022-10-16T05:10:28;16.00;79.70
4107;DHT22;21906;50.812;7.132;2022-10-16T05:12:53;16.00;79.50
4107;DHT22;21906;50.812;7.132;2022-10-16T05:15:19;16.00;79.60
4107;DHT22;21906;50.812;7.132;2022-10-16T05:17:45;16.00;79.70
4107;DHT22;21906;50.812;7.132;2022-10-16T05:20:11;16.00;79.70
4107;DHT22;21906;50.812;7.132;2022-10-16T05:22:37;16.00;79.50
4107;DHT22;21906;50.812;7.132;2022-10-16T05:25:03;16.00;79.60
4107;DHT22;21906;50.812;7.132;2022-10-16T05:27:29;16.00;79.60
4107;DHT22;21906;50.812;7.132;2022-10-16T05:29:54;16.00;79.60
4107;DHT22;21906;50.812;7.132;2022-10-16T05:32:20;16.00;79.80
4107;DHT22;21906;50.812;7.132;2022-10-16T05:34:46;16.00;79.90
4107;DHT22;21906;50.812;7.132;2022-10-16T05:37:12;16.00;79.90
4107;DHT22;21906;50.812;7.132;2022-10-16T05:39:40;16.00;80.00
4107;DHT22;21906;50.812;7.132;2022-10-16T05:42:06;16.00;80.10
4107;DHT22;21906;50.812;7.132;2022-10-16T05:44:32;16.00;80.10
4107;DHT22;21906;50.812;7.132;2022-10-16T05:46:58;16.00;80.10
4107;DHT22;21906;50.812;7.132;2022-10-16T05:49:24;16.10;80.00
4107;DHT22;21906;50.812;7.132;2022-10-16T05:51:50;16.00;80.10
4107;DHT22;21906;50.812;7.132;2022-10-16T05:54:15;16.00;80.10
4107;DHT22;21906;50.812;7.132;2022-10-16T05:56:41;16.00;80.20
4107;DHT22;21906;50.812;7.132;2022-10-16T05:59:07;16.00;80.30
4107;DHT22;21906;50.812;7.132;2022-10-16T06:01:32;16.00;80.30
4107;DHT22;21906;50.812;7.132;2022-10-16T06:03:58;16.00;80.40
4107;DHT22;21906;50.812;7.132;2022-10-16T06:06:26;16.10;80.40
4107;DHT22;21906;50.812;7.132;2022-10-16T06:08:53;16.00;80.40
4107;DHT22;21906;50.812;7.132;2022-10-16T06:11:25;16.10;80.40
4107;DHT22;21906;50.812;7.132;2022-10-16T06:13:55;16.00;80.50
4107;DHT22;21906;50.812;7.132;2022-10-16T06:16:27;16.00;80.60
4107;DHT22;21906;50.812;7.132;2022-10-16T06:18:54;16.00;80.70
4107;DHT22;21906;50.812;7.132;2022-10-16T06:21:22;16.00;80.60
4107;DHT22;21906;50.812;7.132;2022-10-16T06:23:50;16.00;80.70
4107;DHT22;21906;50.812;7.132;2022-10-16T06:26:18;16.00;80.70
4107;DHT22;21906;50.812;7.132;2022-10-16T06:28:45;16.00;80.70
4107;DHT22;21906;50.812;7.132;2022-10-16T06:31:11;16.10;80.80
4107;DHT22;21906;50.812;7.132;2022-10-16T06:33:38;16.00;80.70
4107;DHT22;21906;50.812;7.132;2022-10-16T06:36:06;16.00;80.80
4107;DHT22;21906;50.812;7.132;2022-10-16T06:38:32;16.00;80.80
4107;DHT22;21906;50.812;7.132;2022-10-16T06:40:58;16.00;80.70
4107;DHT22;21906;50.812;7.132;2022-10-16T06:43:24;16.00;80.70
4107;DHT22;21906;50.812;7.132;2022-10-16T06:46:00;16.00;80.70
4107;DHT22;21906;50.812;7.132;2022-10-16T06:48:27;16.00;80.70
4107;DHT22;21906;50.812;7.132;2022-10-16T06:51:22;16.00;80.70
4107;DHT22;21906;50.812;7.132;2022-10-16T06:53:51;16.00;80.80
4107;DHT22;21906;50.812;7.132;2022-10-16T06:56:20;16.00;80.90
4107;DHT22;21906;50.812;7.132;2022-10-16T06:58:47;16.00;80.90
4107;DHT22;21906;50.812;7.132;2022-10-16T07:01:14;16.00;81.00
4107;DHT22;21906;50.812;7.132;2022-10-16T07:03:42;16.00;80.90
4107;DHT22;21906;50.812;7.132;2022-10-16T07:06:10;16.10;80.80
4107;DHT22;21906;50.812;7.132;2022-10-16T07:08:39;16.10;80.90
4107;DHT22;21906;50.812;7.132;2022-10-16T07:11:14;16.10;81.00
4107;DHT22;21906;50.812;7.132;2022-10-16T07:13:41;16.10;80.90
4107;DHT22;21906;50.812;7.132;2022-10-16T07:16:19;16.20;80.90
4107;DHT22;21906;50.812;7.132;2022-10-16T07:18:45;16.20;80.90
4107;DHT22;21906;50.812;7.132;2022-10-16T07:21:14;16.20;80.70
4107;DHT22;21906;50.812;7.132;2022-10-16T07:23:41;16.30;80.70
4107;DHT22;21906;50.812;7.132;2022-10-16T07:26:09;16.30;80.70
4107;DHT22;21906;50.812;7.132;2022-10-16T07:28:44;16.30;80.70
4107;DHT22;21906;50.812;7.132;2022-10-16T07:31:13;16.30;80.70
4107;DHT22;21906;50.812;7.132;2022-10-16T07:33:44;16.40;80.70
4107;DHT22;21906;50.812;7.132;2022-10-16T07:36:11;16.40;80.70
4107;DHT22;21906;50.812;7.132;2022-10-16T07:38:37;16.40;80.60
4107;DHT22;21906;50.812;7.132;2022-10-16T07:41:12;16.40;80.60
4107;DHT22;21906;50.812;7.132;2022-10-16T07:43:38;16.50;80.60
4107;DHT22;21906;50.812;7.132;2022-10-16T07:46:08;16.50;80.50
4107;DHT22;21906;50.812;7.132;2022-10-16T07:48:34;16.50;80.60
4107;DHT22;21906;50.812;7.132;2022-10-16T07:51:02;16.50;80.50
4107;DHT22;21906;50.812;7.132;2022-10-16T07:53:28;16.50;80.50
4107;DHT22;21906;50.812;7.132;2022-10-16T07:56:02;16.50;80.50
4107;DHT22;21906;50.812;7.132;2022-10-16T07:58:28;16.50;80.50
4107;DHT22;21906;50.812;7.132;2022-10-16T08:00:55;16.50;80.60
4107;DHT22;21906;50.812;7.132;2022-10-16T08:03:21;16.50;80.70
4107;DHT22;21906;50.812;7.132;2022-10-16T08:05:47;16.50;80.70
4107;DHT22;21906;50.812;7.132;2022-10-16T08:08:14;16.50;80.80
4107;DHT22;21906;50.812;7.132;2022-10-16T08:10:41;16.50;80.90
4107;DHT22;21906;50.812;7.132;2022-10-16T08:13:07;16.40;80.90
4107;DHT22;21906;50.812;7.132;2022-10-16T08:15:32;16.40;80.90
4107;DHT22;21906;50.812;7.132;2022-10-16T08:18:00;16.50;80.90
4107;DHT22;21906;50.812;7.132;2022-10-16T08:20:27;16.50;80.90
4107;DHT22;21906;50.812;7.132;2022-10-16T08:22:53;16.50;80.90
4107;DHT22;21906;50.812;7.132;2022-10-16T08:25:20;16.50;80.90
4107;DHT22;21906;50.812;7.132;2022-10-16T08:27:46;16.50;80.90
4107;DHT22;21906;50.812;7.132;2022-10-16T08:30:12;16.50;80.90
4107;DHT22;21906;50.812;7.132;2022-10-16T08:32:38;16.60;80.90
4107;DHT22;21906;50.812;7.132;2022-10-16T08:35:04;16.70;80.80
4107;DHT22;21906;50.812;7.132;2022-10-16T08:37:31;16.80;80.60
4107;DHT22;21906;50.812;7.132;2022-10-16T08:39:57;16.90;80.40
4107;DHT22;21906;50.812;7.132;2022-10-16T08:48:20;17.10;79.20
4107;DHT22;21906;50.812;7.132;2022-10-16T08:50:50;17.20;78.70
4107;DHT22;21906;50.812;7.132;2022-10-16T08:53:31;17.30;78.30
4107;DHT22;21906;50.812;7.132;2022-10-16T08:55:58;17.40;77.80
4107;DHT22;21906;50.812;7.132;2022-10-16T08:58:28;17.40;77.10
4107;DHT22;21906;50.812;7.132;2022-10-16T09:01:11;17.50;76.90
4107;DHT22;21906;50.812;7.132;2022-10-16T09:03:56;17.60;76.50
4107;DHT22;21906;50.812;7.132;2022-10-16T09:06:43;17.70;75.30
4107;DHT22;21906;50.812;7.132;2022-10-16T09:11:52;17.90;75.40
4107;DHT22;21906;50.812;7.132;2022-10-16T09:19:57;17.90;74.30
4107;DHT22;21906;50.812;7.132;2022-10-16T09:22:27;17.90;74.50
4107;DHT22;21906;50.812;7.132;2022-10-16T09:24:55;17.90;74.40
4107;DHT22;21906;50.812;7.132;2022-10-16T09:27:24;17.90;74.70
4107;DHT22;21906;50.812;7.132;2022-10-16T09:29:51;18.00;74.60
4107;DHT22;21906;50.812;7.132;2022-10-16T09:32:19;18.00;74.30
4107;DHT22;21906;50.812;7.132;2022-10-16T09:34:52;18.20;73.90
4107;DHT22;21906;50.812;7.132;2022-10-16T09:37:21;18.20;73.30
4107;DHT22;21906;50.812;7.132;2022-10-16T09:39:50;18.30;72.70
4107;DHT22;21906;50.812;7.132;2022-10-16T09:42:27;18.30;72.70
4107;DHT22;21906;50.812;7.132;2022-10-16T09:44:57;18.40;72.10
4107;DHT22;21906;50.812;7.132;2022-10-16T09:47:28;18.40;72.70
4107;DHT22;21906;50.812;7.132;2022-10-16T09:52:20;18.60;72.50
4107;DHT22;21906;50.812;7.132;2022-10-16T09:57:16;18.70;71.20
4107;DHT22;21906;50.812;7.132;2022-10-16T09:59:55;18.70;71.70
4107;DHT22;21906;50.812;7.132;2022-10-16T10:02:30;18.80;71.50
4107;DHT22;21906;50.812;7.132;2022-10-16T10:04:56;18.90;71.00
4107;DHT22;21906;50.812;7.132;2022-10-16T10:07:34;18.90;68.40
4107;DHT22;21906;50.812;7.132;2022-10-16T10:10:04;19.10;65.80
4107;DHT22;21906;50.812;7.132;2022-10-16T10:15:41;19.30;64.70
4107;DHT22;21906;50.812;7.132;2022-10-16T10:18:20;19.40;64.80
4107;DHT22;21906;50.812;7.132;2022-10-16T10:20:58;19.50;63.20
4107;DHT22;21906;50.812;7.132;2022-10-16T10:23:26;19.60;62.00
4107;DHT22;21906;50.812;7.132;2022-10-16T10:26:16;19.70;63.10
4107;DHT22;21906;50.812;7.132;2022-10-16T10:29:17;19.90;61.80
4107;DHT22;21906;50.812;7.132;2022-10-16T10:42:57;20.60;60.20
4107;DHT22;21906;50.812;7.132;2022-10-16T10:45:28;20.50;59.50
4107;DHT22;21906;50.812;7.132;2022-10-16T10:50:56;20.80;58.70
4107;DHT22;21906;50.812;7.132;2022-10-16T10:56:34;20.90;61.10
4107;DHT22;21906;50.812;7.132;2022-10-16T11:01:58;21.10;58.70
4107;DHT22;21906;50.812;7.132;2022-10-16T11:10:38;21.30;56.30
4107;DHT22;21906;50.812;7.132;2022-10-16T11:12:47;21.40;57.70
4107;DHT22;21906;50.812;7.132;2022-10-16T11:15:19;21.40;57.10
4107;DHT22;21906;50.812;7.132;2022-10-16T11:18:07;21.10;55.60
4107;DHT22;21906;50.812;7.132;2022-10-16T11:20:42;20.90;56.60
4107;DHT22;21906;50.812;7.132;2022-10-16T11:23:43;20.90;55.90
4107;DHT22;21906;50.812;7.132;2022-10-16T11:26:21;20.80;56.20
4107;DHT22;21906;50.812;7.132;2022-10-16T11:28:51;20.70;57.20
4107;DHT22;21906;50.812;7.132;2022-10-16T11:36:37;20.60;56.30
4107;DHT22;21906;50.812;7.132;2022-10-16T11:46:27;20.90;58.80
4107;DHT22;21906;50.812;7.132;2022-10-16T11:49:03;21.10;59.50
4107;DHT22;21906;50.812;7.132;2022-10-16T11:51:39;21.20;60.60
4107;DHT22;21906;50.812;7.132;2022-10-16T11:56:45;21.80;57.30
4107;DHT22;21906;50.812;7.132;2022-10-16T11:59:34;22.10;54.90
4107;DHT22;21906;50.812;7.132;2022-10-16T12:08:07;22.40;52.30
4107;DHT22;21906;50.812;7.132;2022-10-16T12:10:34;22.30;51.60
4107;DHT22;21906;50.812;7.132;2022-10-16T12:13:04;22.20;52.80
4107;DHT22;21906;50.812;7.132;2022-10-16T12:15:33;22.00;52.40
4107;DHT22;21906;50.812;7.132;2022-10-16T12:18:00;22.00;52.30
4107;DHT22;21906;50.812;7.132;2022-10-16T12:20:29;21.90;53.50
4107;DHT22;21906;50.812;7.132;2022-10-16T12:23:01;21.80;54.50
4107;DHT22;21906;50.812;7.132;2022-10-16T12:25:32;21.90;55.00
4107;DHT22;21906;50.812;7.132;2022-10-16T12:30:34;22.00;56.30
4107;DHT22;21906;50.812;7.132;2022-10-16T12:33:05;22.10;56.90
4107;DHT22;21906;50.812;7.132;2022-10-16T12:35:34;22.20;56.80
4107;DHT22;21906;50.812;7.132;2022-10-16T12:38:28;22.20;56.30
4107;DHT22;21906;50.812;7.132;2022-10-16T12:41:06;22.20;56.90
4107;DHT22;21906;50.812;7.132;2022-10-16T12:43:41;22.20;56.50
4107;DHT22;21906;50.812;7.132;2022-10-16T12:48:42;22.10;57.10
4107;DHT22;21906;50.812;7.132;2022-10-16T12:51:36;22.00;57.30
4107;DHT22;21906;50.812;7.132;2022-10-16T12:54:15;22.00;57.00
4107;DHT22;21906;50.812;7.132;2022-10-16T12:59:48;21.90;58.20
4107;DHT22;21906;50.812;7.132;2022-10-16T13:11:24;22.00;56.70
4107;DHT22;21906;50.812;7.132;2022-10-16T13:14:39;22.00;55.20
4107;DHT22;21906;50.812;7.132;2022-10-16T13:19:42;22.10;57.40
4107;DHT22;21906;50.812;7.132;2022-10-16T13:28:00;22.80;57.10
4107;DHT22;21906;50.812;7.132;2022-10-16T13:30:29;22.90;55.00
4107;DHT22;21906;50.812;7.132;2022-10-16T13:33:02;22.90;55.40
4107;DHT22;21906;50.812;7.132;2022-10-16T13:35:32;23.00;56.00
4107;DHT22;21906;50.812;7.132;2022-10-16T13:38:17;23.00;56.30
4107;DHT22;21906;50.812;7.132;2022-10-16T13:40:57;22.90;56.90
4107;DHT22;21906;50.812;7.132;2022-10-16T13:46:03;22.80;56.80
4107;DHT22;21906;50.812;7.132;2022-10-16T13:48:31;22.60;57.10
4107;DHT22;21906;50.812;7.132;2022-10-16T13:51:18;22.50;57.00
4107;DHT22;21906;50.812;7.132;2022-10-16T13:53:45;22.60;57.90
4107;DHT22;21906;50.812;7.132;2022-10-16T13:56:14;22.70;58.40
4107;DHT22;21906;50.812;7.132;2022-10-16T13:58:40;22.70;58.40
4107;DHT22;21906;50.812;7.132;2022-10-16T14:03:41;22.70;57.80
4107;DHT22;21906;50.812;7.132;2022-10-16T14:06:14;22.70;58.10
4107;DHT22;21906;50.812;7.132;2022-10-16T14:08:46;22.50;58.70
4107;DHT22;21906;50.812;7.132;2022-10-16T14:11:21;22.40;58.90
4107;DHT22;21906;50.812;7.132;2022-10-16T14:13:49;22.40;58.70
4107;DHT22;21906;50.812;7.132;2022-10-16T14:16:18;22.50;58.80
4107;DHT22;21906;50.812;7.132;2022-10-16T14:19:01;22.60;58.80
4107;DHT22;21906;50.812;7.132;2022-10-16T14:21:28;22.80;57.00
4107;DHT22;21906;50.812;7.132;2022-10-16T14:23:54;22.90;56.90
4107;DHT22;21906;50.812;7.132;2022-10-16T14:26:23;22.90;56.30
4107;DHT22;21906;50.812;7.132;2022-10-16T14:29:09;22.90;56.50
4107;DHT22;21906;50.812;7.132;2022-10-16T14:31:36;22.90;55.50
4107;DHT22;21906;50.812;7.132;2022-10-16T14:34:03;22.70;55.80
4107;DHT22;21906;50.812;7.132;2022-10-16T14:36:29;22.80;56.30
4107;DHT22;21906;50.812;7.132;2022-10-16T14:39:04;22.80;56.50
4107;DHT22;21906;50.812;7.132;2022-10-16T14:41:32;22.70;56.60
4107;DHT22;21906;50.812;7.132;2022-10-16T14:44:05;22.70;57.10
4107;DHT22;21906;50.812;7.132;2022-10-16T14:46:39;22.90;57.00
4107;DHT22;21906;50.812;7.132;2022-10-16T14:51:34;23.20;57.30
4107;DHT22;21906;50.812;7.132;2022-10-16T14:54:00;23.20;56.80
4107;DHT22;21906;50.812;7.132;2022-10-16T14:57:14;23.10;57.50
4107;DHT22;21906;50.812;7.132;2022-10-16T14:59:36;22.90;58.00
4107;DHT22;21906;50.812;7.132;2022-10-16T15:02:28;22.60;59.30
4107;DHT22;21906;50.812;7.132;2022-10-16T15:04:54;22.40;60.40
4107;DHT22;21906;50.812;7.132;2022-10-16T15:07:21;22.20;60.90
4107;DHT22;21906;50.812;7.132;2022-10-16T15:09:47;22.00;61.30
4107;DHT22;21906;50.812;7.132;2022-10-16T15:12:13;21.90;61.70
4107;DHT22;21906;50.812;7.132;2022-10-16T15:14:38;21.80;62.10
4107;DHT22;21906;50.812;7.132;2022-10-16T15:17:04;21.60;62.80
4107;DHT22;21906;50.812;7.132;2022-10-16T15:19:30;21.50;63.20
4107;DHT22;21906;50.812;7.132;2022-10-16T15:21:56;21.40;63.80
4107;DHT22;21906;50.812;7.132;2022-10-16T15:24:22;21.30;64.20
4107;DHT22;21906;50.812;7.132;2022-10-16T15:26:47;21.20;64.70
4107;DHT22;21906;50.812;7.132;2022-10-16T15:29:14;21.10;64.90
4107;DHT22;21906;50.812;7.132;2022-10-16T15:31:40;21.00;65.20
4107;DHT22;21906;50.812;7.132;2022-10-16T15:34:09;20.90;65.70
4107;DHT22;21906;50.812;7.132;2022-10-16T15:36:37;20.90;66.10
4107;DHT22;21906;50.812;7.132;2022-10-16T15:39:04;20.70;66.40
4107;DHT22;21906;50.812;7.132;2022-10-16T15:41:30;20.60;66.70
4107;DHT22;21906;50.812;7.132;2022-10-16T15:43:56;20.60;67.00
4107;DHT22;21906;50.812;7.132;2022-10-16T15:46:23;20.60;67.10
4107;DHT22;21906;50.812;7.132;2022-10-16T15:48:50;20.50;67.40
4107;DHT22;21906;50.812;7.132;2022-10-16T15:51:17;20.40;67.60
4107;DHT22;21906;50.812;7.132;2022-10-16T15:53:43;20.40;67.80
4107;DHT22;21906;50.812;7.132;2022-10-16T15:56:12;20.40;67.90
4107;DHT22;21906;50.812;7.132;2022-10-16T15:58:38;20.40;68.20
4107;DHT22;21906;50.812;7.132;2022-10-16T16:01:04;20.30;68.40
4107;DHT22;21906;50.812;7.132;2022-10-16T16:03:31;20.20;68.60
4107;DHT22;21906;50.812;7.132;2022-10-16T16:06:02;20.20;68.70
4107;DHT22;21906;50.812;7.132;2022-10-16T16:08:28;20.20;69.00
4107;DHT22;21906;50.812;7.132;2022-10-16T16:11:10;20.20;69.10
4107;DHT22;21906;50.812;7.132;2022-10-16T16:13:36;20.10;69.20
4107;DHT22;21906;50.812;7.132;2022-10-16T16:16:10;20.00;69.40
4107;DHT22;21906;50.812;7.132;2022-10-16T16:18:36;20.00;69.70
4107;DHT22;21906;50.812;7.132;2022-10-16T16:21:02;20.00;69.90
4107;DHT22;21906;50.812;7.132;2022-10-16T16:23:28;20.00;69.90
4107;DHT22;21906;50.812;7.132;2022-10-16T16:26:06;19.90;70.10
4107;DHT22;21906;50.812;7.132;2022-10-16T16:28:32;19.90;70.20
4107;DHT22;21906;50.812;7.132;2022-10-16T16:30:57;19.90;70.40
4107;DHT22;21906;50.812;7.132;2022-10-16T16:33:23;19.90;70.60
4107;DHT22;21906;50.812;7.132;2022-10-16T16:35:49;19.90;70.70
4107;DHT22;21906;50.812;7.132;2022-10-16T16:38:15;19.90;70.80
4107;DHT22;21906;50.812;7.132;2022-10-16T16:40:40;19.80;71.00
4107;DHT22;21906;50.812;7.132;2022-10-16T16:43:06;19.80;71.10
4107;DHT22;21906;50.812;7.132;2022-10-16T16:45:35;19.80;71.30
4107;DHT22;21906;50.812;7.132;2022-10-16T16:48:00;19.80;71.30
4107;DHT22;21906;50.812;7.132;2022-10-16T16:50:26;19.70;71.50
4107;DHT22;21906;50.812;7.132;2022-10-16T16:52:52;19.70;71.60
4107;DHT22;21906;50.812;7.132;2022-10-16T16:55:17;19.70;71.80
4107;DHT22;21906;50.812;7.132;2022-10-16T16:57:43;19.60;72.00
4107;DHT22;21906;50.812;7.132;2022-10-16T17:00:09;19.70;72.00
4107;DHT22;21906;50.812;7.132;2022-10-16T17:02:35;19.60;72.10
4107;DHT22;21906;50.812;7.132;2022-10-16T17:05:00;19.60;72.20
4107;DHT22;21906;50.812;7.132;2022-10-16T17:07:26;19.60;72.30
4107;DHT22;21906;50.812;7.132;2022-10-16T17:09:55;19.60;72.50
4107;DHT22;21906;50.812;7.132;2022-10-16T17:12:21;19.50;72.60
4107;DHT22;21906;50.812;7.132;2022-10-16T17:14:47;19.50;72.60
4107;DHT22;21906;50.812;7.132;2022-10-16T17:17:12;19.50;72.70
4107;DHT22;21906;50.812;7.132;2022-10-16T17:19:38;19.50;72.70
4107;DHT22;21906;50.812;7.132;2022-10-16T17:22:03;19.50;72.70
4107;DHT22;21906;50.812;7.132;2022-10-16T17:24:29;19.50;72.70
4107;DHT22;21906;50.812;7.132;2022-10-16T17:26:55;19.50;72.80
4107;DHT22;21906;50.812;7.132;2022-10-16T17:29:20;19.50;72.80
4107;DHT22;21906;50.812;7.132;2022-10-16T17:31:46;19.40;72.80
4107;DHT22;21906;50.812;7.132;2022-10-16T17:34:14;19.40;72.90
4107;DHT22;21906;50.812;7.132;2022-10-16T17:36:40;19.40;73.00
4107;DHT22;21906;50.812;7.132;2022-10-16T17:39:13;19.40;73.00
4107;DHT22;21906;50.812;7.132;2022-10-16T17:41:39;19.40;73.00
4107;DHT22;21906;50.812;7.132;2022-10-16T17:44:05;19.40;73.10
4107;DHT22;21906;50.812;7.132;2022-10-16T17:46:31;19.40;73.30
4107;DHT22;21906;50.812;7.132;2022-10-16T17:48:58;19.30;73.30
4107;DHT22;21906;50.812;7.132;2022-10-16T17:51:27;19.30;73.40
4107;DHT22;21906;50.812;7.132;2022-10-16T17:53:56;19.20;73.40
4107;DHT22;21906;50.812;7.132;2022-10-16T17:56:22;19.20;73.60
4107;DHT22;21906;50.812;7.132;2022-10-16T17:58:50;19.20;73.60
4107;DHT22;21906;50.812;7.132;2022-10-16T18:01:17;19.20;73.80
4107;DHT22;21906;50.812;7.132;2022-10-16T18:03:47;19.20;73.80
4107;DHT22;21906;50.812;7.132;2022-10-16T18:06:13;19.20;73.80